createdAt,value
2022-09-29T00:10:27.348Z,99.94
2022-09-29T00:13:30.827Z,100.00
2022-09-29T00:16:40.501Z,100.00
2022-09-29T00:19:43.731Z,100.00
2022-09-29T01:12:34.351Z,98.64
2022-09-29T01:15:37.936Z,98.99
2022-09-29T01:22:29.111Z,99.79
2022-09-29T01:26:05.038Z,100.00
2022-09-29T01:49:20.966Z,100.00
2022-09-29T01:52:25.371Z,100.00
2022-09-29T01:55:29.983Z,100.00
2022-09-29T01:58:40.835Z,100.00
2022-09-29T02:01:45.546Z,100.00
2022-09-29T02:04:59.161Z,100.00
2022-09-29T02:08:03.357Z,100.00
2022-09-29T02:11:09.304Z,100.00
2022-09-29T02:14:29.981Z,100.00
2022-09-29T02:21:14.964Z,100.00
2022-09-29T02:24:18.375Z,100.00
2022-09-29T02:27:21.521Z,100.00
2022-09-29T02:30:24.649Z,100.00
2022-09-29T02:33:27.522Z,100.00
2022-09-29T02:36:43.341Z,100.00
2022-09-29T02:39:49.621Z,100.00
2022-09-29T02:42:56.010Z,100.00
2022-09-29T02:46:11.165Z,100.00
2022-09-29T02:49:18.176Z,100.00
2022-09-29T02:52:32.115Z,100.00
2022-09-29T02:55:36.419Z,100.00
2022-09-29T02:58:45.017Z,100.00
2022-09-29T03:01:52.494Z,100.00
2022-09-29T03:04:55.570Z,100.00
2022-09-29T03:07:58.699Z,100.00
2022-09-29T03:11:01.550Z,100.00
2022-09-29T03:14:04.488Z,100.00
2022-09-29T03:17:08.579Z,100.00
2022-09-29T03:20:11.658Z,100.00
2022-09-29T03:23:18.049Z,100.00
2022-09-29T03:26:24.209Z,100.00
2022-09-29T03:29:27.041Z,100.00
2022-09-29T03:39:26.492Z,100.00
2022-09-29T03:42:32.191Z,100.00
2022-09-29T03:45:34.744Z,100.00
2022-09-29T03:48:37.645Z,100.00
2022-09-29T03:51:41.495Z,100.00
2022-09-29T03:54:54.648Z,100.00
2022-09-29T03:57:57.206Z,100.00
2022-09-29T04:01:01.908Z,100.00
2022-09-29T04:04:06.067Z,100.00
2022-09-29T04:07:09.976Z,100.00
2022-09-29T04:10:13.259Z,100.00
2022-09-29T04:13:20.075Z,100.00
2022-09-29T04:16:23.187Z,100.00
2022-09-29T04:19:25.906Z,100.00
2022-09-29T04:22:28.747Z,100.00
2022-09-29T04:25:31.284Z,100.00
2022-09-29T04:28:34.859Z,100.00
2022-09-29T04:31:37.508Z,100.00
2022-09-29T04:34:40.539Z,100.00
2022-09-29T04:37:50.019Z,100.00
2022-09-29T04:40:53.133Z,100.00
2022-09-29T04:43:55.698Z,100.00
2022-09-29T04:46:58.412Z,100.00
2022-09-29T04:50:00.908Z,100.00
2022-09-29T04:53:03.740Z,100.00
2022-09-29T04:56:07.197Z,100.00
2022-09-29T04:59:10.673Z,100.00
2022-09-29T05:02:13.284Z,100.00
2022-09-29T05:05:16.229Z,100.00
2022-09-29T05:08:18.929Z,100.00
2022-09-29T05:11:21.780Z,100.00
2022-09-29T05:14:24.246Z,100.00
2022-09-29T05:17:27.095Z,100.00
2022-09-29T05:20:38.376Z,100.00
2022-09-29T05:23:44.847Z,100.00
2022-09-29T05:26:47.352Z,100.00
2022-09-29T05:29:50.301Z,100.00
2022-09-29T05:32:58.205Z,100.00
2022-09-29T05:36:02.085Z,100.00
2022-09-29T05:39:04.709Z,100.00
2022-09-29T05:42:10.703Z,100.00
2022-09-29T05:45:13.189Z,100.00
2022-09-29T05:48:16.029Z,100.00
2022-09-29T05:51:22.862Z,100.00
2022-09-29T05:54:27.641Z,100.00
2022-09-29T05:57:31.725Z,100.00
2022-09-29T06:00:36.125Z,100.00
2022-09-29T06:03:39.341Z,100.00
2022-09-29T06:06:42.894Z,100.00
2022-09-29T06:09:45.926Z,100.00
2022-09-29T06:12:48.666Z,100.00
2022-09-29T06:15:51.633Z,100.00
2022-09-29T06:18:54.223Z,100.00
2022-09-29T06:21:57.275Z,100.00
2022-09-29T06:25:27.949Z,100.00
2022-09-29T06:28:30.884Z,100.00
2022-09-29T06:31:57.968Z,100.00
2022-09-29T06:35:19.631Z,100.00
2022-09-29T06:38:32.330Z,100.00
2022-09-29T06:41:59.853Z,100.00
2022-09-29T06:45:02.630Z,100.00
2022-09-29T06:48:17.863Z,100.00
2022-09-29T06:55:52.550Z,100.00
2022-09-29T06:58:57.977Z,100.00
2022-09-29T07:02:05.274Z,100.00
2022-09-29T07:09:16.632Z,100.00
2022-09-29T07:12:32.216Z,100.00
2022-09-29T07:15:35.268Z,100.00
2022-09-29T07:18:38.986Z,100.00
2022-09-29T07:21:41.548Z,100.00
2022-09-29T07:24:44.377Z,100.00
2022-09-29T07:27:48.488Z,100.00
2022-09-29T07:31:15.183Z,100.00
2022-09-29T07:34:21.006Z,100.00
2022-09-29T07:37:26.565Z,100.00
2022-09-29T07:40:29.073Z,100.00
2022-09-29T07:47:25.466Z,100.00
2022-09-29T07:54:24.632Z,100.00
2022-09-29T07:57:40.438Z,100.00
2022-09-29T08:00:43.307Z,100.00
2022-09-29T08:03:54.930Z,100.00
2022-09-29T08:06:58.149Z,100.00
2022-09-29T08:10:17.602Z,100.00
2022-09-29T08:13:23.467Z,100.00
2022-09-29T08:16:35.344Z,100.00
2022-09-29T08:19:38.042Z,97.67
2022-09-29T08:23:13.244Z,96.75
2022-09-29T08:26:17.713Z,96.35
2022-09-29T08:29:20.983Z,95.59
2022-09-29T08:32:30.088Z,95.24
2022-09-29T08:35:33.517Z,93.17
2022-09-29T08:42:48.101Z,98.07
2022-09-29T08:46:00.726Z,98.06
2022-09-29T08:49:05.159Z,97.05
2022-09-29T08:52:16.733Z,94.65
2022-09-29T08:55:24.201Z,91.69
2022-09-29T08:58:26.929Z,89.23
2022-09-29T09:01:35.559Z,89.44
2022-09-29T09:05:01.602Z,86.48
2022-09-29T09:08:14.203Z,86.35
2022-09-29T09:11:38.063Z,83.19
2022-09-29T09:14:45.617Z,82.29
2022-09-29T09:22:06.926Z,78.75
2022-09-29T09:25:41.513Z,78.45
2022-09-29T09:28:57.324Z,77.50
2022-09-29T09:32:02.358Z,78.47
2022-09-29T09:42:34.604Z,78.29
2022-09-29T09:50:43.428Z,77.39
2022-09-29T09:54:13.694Z,77.86
2022-09-29T09:57:18.405Z,79.02
2022-09-29T10:00:41.787Z,79.18
2022-09-29T10:03:54.055Z,79.01
2022-09-29T10:06:57.883Z,76.37
2022-09-29T10:13:32.738Z,70.97
2022-09-29T10:16:52.983Z,72.91
2022-09-29T10:19:59.945Z,72.60
2022-09-29T10:23:34.695Z,71.47
2022-09-29T10:26:46.551Z,72.40
2022-09-29T10:29:59.935Z,73.06
2022-09-29T10:33:10.437Z,75.13
2022-09-29T10:36:17.385Z,77.81
2022-09-29T10:39:40.086Z,79.46
2022-09-29T10:42:46.985Z,80.96
2022-09-29T10:49:39.192Z,81.09
2022-09-29T10:52:57.212Z,78.30
2022-09-29T10:56:01.867Z,77.81
2022-09-29T10:59:20.217Z,75.71
2022-09-29T11:02:22.996Z,73.73
2022-09-29T11:05:27.204Z,73.61
2022-09-29T11:08:31.425Z,74.29
2022-09-29T11:12:02.430Z,73.87
2022-09-29T11:15:41.410Z,72.61
2022-09-29T11:22:42.629Z,74.04
2022-09-29T11:25:45.366Z,73.18
2022-09-29T11:29:03.971Z,72.64
2022-09-29T11:32:12.793Z,72.52
2022-09-29T11:35:19.478Z,74.83
2022-09-29T11:38:22.219Z,75.04
2022-09-29T11:41:26.340Z,75.80
2022-09-29T11:44:32.123Z,69.80
2022-09-29T11:47:46.785Z,73.09
2022-09-29T11:50:51.450Z,73.56
2022-09-29T11:54:16.140Z,72.55
2022-09-29T11:57:37.822Z,77.20
2022-09-29T12:00:43.656Z,73.97
2022-09-29T12:03:47.510Z,76.11
2022-09-29T12:06:58.288Z,74.92
2022-09-29T12:10:08.443Z,74.53
2022-09-29T12:13:46.302Z,74.99
2022-09-29T12:16:52.725Z,76.11
2022-09-29T12:19:59.703Z,77.22
2022-09-29T12:23:05.844Z,76.40
2022-09-29T12:26:14.143Z,75.24
2022-09-29T12:29:16.895Z,73.70
2022-09-29T12:32:24.070Z,75.54
2022-09-29T12:35:33.047Z,73.49
2022-09-29T12:38:37.547Z,74.08
2022-09-29T12:41:42.734Z,73.15
2022-09-29T12:44:48.264Z,71.79
2022-09-29T12:48:02.370Z,69.94
2022-09-29T12:51:13.204Z,69.37
2022-09-29T12:54:40.084Z,64.93
2022-09-29T12:57:42.553Z,59.56
2022-09-29T13:00:45.096Z,56.52
2022-09-29T13:04:06.195Z,56.22
2022-09-29T13:07:27.442Z,55.12
2022-09-29T13:10:38.944Z,58.48
2022-09-29T13:13:54.016Z,61.61
2022-09-29T13:16:59.428Z,64.65
2022-09-29T13:20:17.622Z,61.90
2022-09-29T13:23:39.146Z,60.17
2022-09-29T13:27:00.275Z,53.89
2022-09-29T13:30:06.973Z,47.98
2022-09-29T13:33:10.991Z,46.33
2022-09-29T13:36:22.593Z,46.11
2022-09-29T13:39:27.293Z,43.72
2022-09-29T13:42:46.014Z,42.63
2022-09-29T13:45:48.834Z,42.18
2022-09-29T13:48:52.839Z,41.72
2022-09-29T13:52:24.685Z,43.35
2022-09-29T13:55:46.020Z,45.42
2022-09-29T13:58:48.816Z,50.20
2022-09-29T14:01:51.880Z,54.37
2022-09-29T14:04:55.952Z,56.49
2022-09-29T14:07:58.808Z,58.34
2022-09-29T14:11:06.890Z,60.82
2022-09-29T14:14:14.662Z,63.17
2022-09-29T14:17:19.649Z,64.09
2022-09-29T14:20:26.719Z,63.87
2022-09-29T14:23:45.099Z,63.06
2022-09-29T14:26:48.694Z,65.17
2022-09-29T14:29:51.603Z,63.06
2022-09-29T14:32:55.435Z,60.58
2022-09-29T14:36:01.180Z,59.61
2022-09-29T14:39:25.159Z,59.55
2022-09-29T14:42:26.474Z,60.55
2022-09-29T14:45:47.617Z,55.51
2022-09-29T14:49:15.460Z,54.79
2022-09-29T14:52:17.937Z,51.84
2022-09-29T14:55:23.830Z,52.01
2022-09-29T14:58:32.364Z,53.52
2022-09-29T15:01:39.271Z,54.73
2022-09-29T15:04:41.874Z,55.71
2022-09-29T15:07:44.638Z,55.73
2022-09-29T15:10:47.726Z,57.94
2022-09-29T15:13:50.518Z,55.47
2022-09-29T15:17:03.571Z,57.83
2022-09-29T15:20:18.556Z,56.92
2022-09-29T15:23:40.919Z,57.55
2022-09-29T15:26:44.859Z,59.89
2022-09-29T15:29:53.674Z,60.99
2022-09-29T15:33:04.286Z,59.71
2022-09-29T15:36:08.105Z,60.85
2022-09-29T15:39:23.828Z,55.77
2022-09-29T15:42:27.963Z,56.67
2022-09-29T15:45:31.659Z,59.61
2022-09-29T15:48:34.188Z,62.25
2022-09-29T15:51:37.036Z,62.34
2022-09-29T15:54:41.834Z,66.71
2022-09-29T15:57:49.783Z,68.99
2022-09-29T16:00:59.018Z,71.10
2022-09-29T16:04:01.880Z,73.61
2022-09-29T16:07:04.419Z,75.25
2022-09-29T16:10:13.240Z,76.20
2022-09-29T16:13:18.209Z,76.72
2022-09-29T16:16:25.566Z,77.64
2022-09-29T17:35:52.992Z,88.46
2022-09-29T18:06:54.191Z,91.56
2022-09-29T18:09:57.568Z,92.07
2022-09-29T18:13:28.859Z,92.45
2022-09-29T18:21:04.137Z,92.47
2022-09-29T18:28:03.366Z,92.39
2022-09-29T18:31:40.342Z,92.70
2022-09-29T21:22:46.119Z,97.64
2022-09-29T21:25:49.236Z,99.47
2022-09-29T21:28:53.121Z,99.99
2022-09-29T21:31:56.129Z,100.00
2022-09-29T21:34:58.646Z,100.00
2022-09-29T21:38:02.439Z,100.00
2022-09-29T21:41:06.370Z,100.00
2022-09-29T21:44:15.358Z,100.00
2022-09-29T21:47:39.075Z,100.00
2022-09-29T21:50:42.178Z,100.00
2022-09-29T21:53:45.451Z,100.00
2022-09-29T21:56:48.692Z,100.00
2022-09-29T21:59:51.362Z,100.00
2022-09-29T22:02:54.243Z,100.00
2022-09-29T22:05:57.163Z,100.00
2022-09-29T22:08:59.976Z,100.00
2022-09-29T22:12:16.685Z,100.00
2022-09-29T22:15:20.750Z,100.00
2022-09-29T22:18:50.017Z,100.00
2022-09-29T22:22:12.243Z,100.00
2022-09-29T22:25:15.903Z,100.00
2022-09-29T22:28:18.678Z,100.00
2022-09-29T22:31:21.641Z,100.00
2022-09-29T22:34:24.536Z,100.00
2022-09-29T22:37:52.670Z,100.00
2022-09-29T22:41:12.629Z,100.00
2022-09-29T22:44:15.765Z,100.00
2022-09-29T22:47:18.781Z,100.00
2022-09-29T22:50:23.764Z,100.00
2022-09-29T22:53:26.317Z,100.00
2022-09-29T22:56:29.551Z,100.00
2022-09-29T22:59:32.177Z,100.00
2022-09-29T23:02:36.561Z,100.00
2022-09-29T23:05:40.022Z,100.00
2022-09-29T23:08:43.258Z,100.00
2022-09-29T23:11:46.280Z,100.00
2022-09-29T23:14:50.075Z,100.00
2022-09-29T23:17:53.056Z,100.00
2022-09-29T23:21:03.357Z,100.00
2022-09-29T23:24:07.057Z,100.00
2022-09-29T23:27:10.186Z,100.00
2022-09-29T23:30:12.812Z,100.00
2022-09-29T23:33:15.742Z,100.00
2022-09-29T23:36:18.585Z,100.00
2022-09-29T23:39:22.485Z,100.00
2022-09-29T23:42:25.440Z,100.00
2022-09-29T23:45:28.267Z,100.00
2022-09-29T23:48:31.571Z,100.00
2022-09-29T23:51:36.693Z,100.00
2022-09-29T23:54:39.218Z,100.00
2022-09-29T23:57:42.261Z,100.00
